Aviation Digital Data Service (ADDS)

Output produced by METARs form (1710 UTC 30 October 2020)
found at http://www.aviationweather.gov/metar/data/
 
KGNV 301653Z 33006KT 10SM CLR 19/10 A3007 RMK AO2 SLP180 T01890100
KGNV 301136Z 3012/3112 33009KT P6SM SKC 
     FM302100 01006KT P6SM SKC